Time;durP1;ratioP1;P1;durP2;ratioP2;P2;SDS_P1;SDS_P2;PMS_P1;PMS_P2;Temp;Humidity;BMP_temperature;BMP_pressure;BME280_temperature;BME280_humidity;BME280_pressure;Samples;Min_cycle;Max_cycle;Signal;HPM_P1;HPM_P2
2024/02/29 00:00:06;;;;;;;64.72;22.48;;;;;;;3.93;100.00;101464.25;5020715;28;20045;-70
2024/02/29 00:02:31;;;;;;;64.15;22.23;;;;;;;3.95;100.00;101456.97;5037398;28;20025;-67
2024/02/29 00:04:57;;;;;;;61.28;21.48;;;;;;;3.97;100.00;101447.00;5042098;28;20045;-68
2024/02/29 00:07:22;;;;;;;67.03;22.20;;;;;;;3.97;100.00;101450.53;5042246;28;20063;-67
2024/02/29 00:09:48;;;;;;;66.28;20.10;;;;;;;3.93;100.00;101446.44;5043570;28;20030;-67
2024/02/29 00:12:14;;;;;;;60.83;19.88;;;;;;;4.00;100.00;101454.72;5045342;28;20025;-68
2024/02/29 00:14:42;;;;;;;58.63;20.30;;;;;;;3.99;100.00;101456.53;5043993;28;20039;-68
2024/02/29 00:17:07;;;;;;;58.53;19.50;;;;;;;3.99;100.00;101448.53;5043904;28;20037;-67
2024/02/29 00:19:33;;;;;;;61.10;20.20;;;;;;;4.00;100.00;101438.72;5025569;28;20029;-68
2024/02/29 00:21:59;;;;;;;67.05;20.60;;;;;;;3.83;100.00;101410.16;5043151;28;20025;-68
2024/02/29 00:24:24;;;;;;;50.88;18.58;;;;;;;3.93;100.00;101426.97;5043903;28;20040;-68
2024/02/29 00:26:50;;;;;;;53.60;18.98;;;;;;;4.03;100.00;101434.94;5043646;28;20033;-68
2024/02/29 00:29:15;;;;;;;59.63;18.35;;;;;;;4.02;100.00;101438.59;5042798;28;20056;-67
2024/02/29 00:31:44;;;;;;;55.72;18.52;;;;;;;3.99;100.00;101429.06;5025913;28;20037;-68
2024/02/29 00:34:11;;;;;;;56.55;19.02;;;;;;;4.03;100.00;101432.28;5026177;28;20059;-67
2024/02/29 00:36:38;;;;;;;57.15;19.13;;;;;;;4.03;100.00;101427.78;5041705;28;20029;-71
2024/02/29 00:39:03;;;;;;;59.15;18.90;;;;;;;4.03;100.00;101442.94;5041491;28;20089;-70
2024/02/29 00:41:29;;;;;;;61.75;18.27;;;;;;;4.04;100.00;101433.97;5025234;28;20449;-68
2024/02/29 00:43:55;;;;;;;52.15;19.00;;;;;;;4.03;100.00;101422.47;5041017;28;20072;-68
2024/02/29 00:46:21;;;;;;;56.67;19.48;;;;;;;4.03;100.00;101413.66;5036773;28;20369;-68
2024/02/29 00:48:46;;;;;;;59.25;19.35;;;;;;;4.02;100.00;101415.47;5036796;28;20026;-68
2024/02/29 00:51:12;;;;;;;58.90;18.50;;;;;;;3.88;100.00;101387.47;5035218;28;20030;-70
2024/02/29 00:53:38;;;;;;;55.53;19.35;;;;;;;3.90;100.00;101390.81;5035510;28;20034;-68
2024/02/29 00:56:03;;;;;;;60.25;19.60;;;;;;;4.03;100.00;101392.34;5035289;28;20116;-68
2024/02/29 00:58:29;;;;;;;63.60;19.05;;;;;;;4.04;100.00;101388.69;5036678;28;20033;-68
2024/02/29 01:00:54;;;;;;;54.70;18.15;;;;;;;4.03;100.00;101384.34;5040144;28;20044;-68
2024/02/29 01:03:20;;;;;;;54.40;19.05;;;;;;;4.02;100.00;101375.53;5038553;28;20037;-68
2024/02/29 01:05:45;;;;;;;47.55;18.08;;;;;;;4.04;100.00;101375.38;5005960;28;20036;-68
2024/02/29 01:08:11;;;;;;;49.75;16.48;;;;;;;4.04;100.00;101378.03;5039759;28;20027;-68
2024/02/29 01:10:36;;;;;;;47.28;17.65;;;;;;;4.05;100.00;101366.44;5039051;28;20040;-68
2024/02/29 01:13:01;;;;;;;56.15;17.35;;;;;;;4.06;100.00;101363.59;5038672;28;20363;-68
2024/02/29 01:15:27;;;;;;;50.63;18.48;;;;;;;4.06;100.00;101352.13;5045810;28;20505;-69
2024/02/29 01:17:52;;;;;;;53.47;19.08;;;;;;;4.07;100.00;101356.44;5047283;28;20040;-69
2024/02/29 01:20:18;;;;;;;51.25;19.35;;;;;;;4.05;100.00;101348.63;5030001;28;20029;-69
2024/02/29 01:22:43;;;;;;;65.10;21.13;;;;;;;3.86;100.00;101320.19;5046731;28;20373;-68
2024/02/29 01:25:10;;;;;;;54.80;20.42;;;;;;;4.09;100.00;101352.66;5043296;28;20025;-68
2024/02/29 01:27:35;;;;;;;52.65;21.23;;;;;;;4.09;100.00;101347.34;5024333;28;20049;-68
2024/02/29 01:30:01;;;;;;;63.03;20.70;;;;;;;4.08;100.00;101353.66;5041605;28;20061;-70
2024/02/29 01:32:26;;;;;;;53.53;21.10;;;;;;;4.06;100.00;101344.97;5052069;28;20044;-69
2024/02/29 01:34:52;;;;;;;54.17;21.58;;;;;;;3.89;100.00;101319.91;5052403;28;20025;-69
2024/02/29 01:37:17;;;;;;;61.65;22.35;;;;;;;4.07;100.00;101337.81;5051307;28;20037;-68
2024/02/29 01:39:43;;;;;;;56.42;23.15;;;;;;;4.07;100.00;101324.50;5050386;28;20049;-69
2024/02/29 01:42:10;;;;;;;64.88;24.42;;;;;;;4.08;100.00;101335.03;5048917;28;20436;-68
2024/02/29 01:45:01;;;;;;;64.53;24.75;;;;;;;4.02;100.00;101321.44;5048838;28;20442;-68
2024/02/29 01:47:26;;;;;;;73.80;25.15;;;;;;;3.89;100.00;101303.94;5048183;28;20042;-68
2024/02/29 01:49:58;;;;;;;69.03;24.95;;;;;;;4.04;100.00;101322.13;5050338;28;20029;-68
2024/02/29 01:52:26;;;;;;;71.82;26.20;;;;;;;3.80;100.00;101283.50;5049444;28;20100;-68
2024/02/29 01:54:52;;;;;;;59.70;24.17;;;;;;;4.01;100.00;101317.94;5046704;28;20492;-69
2024/02/29 01:57:18;;;;;;;66.20;24.00;;;;;;;3.85;100.00;101278.59;5022357;28;20043;-68
2024/02/29 01:59:45;;;;;;;59.20;23.92;;;;;;;4.04;100.00;101312.34;5046096;28;20032;-68
2024/02/29 02:02:11;;;;;;;61.70;23.20;;;;;;;4.04;100.00;101300.81;5044817;28;20032;-68
2024/02/29 02:04:36;;;;;;;59.63;23.77;;;;;;;4.01;100.00;101283.31;5047234;28;20113;-68
2024/02/29 02:07:04;;;;;;;65.03;26.05;;;;;;;4.04;100.00;101282.19;5028835;28;20037;-68
2024/02/29 02:09:30;;;;;;;65.47;25.42;;;;;;;4.02;100.00;101277.00;5039793;28;20033;-68
2024/02/29 02:11:56;;;;;;;62.08;25.38;;;;;;;4.01;100.00;101275.34;5021449;28;20038;-68
2024/02/29 02:14:21;;;;;;;69.85;26.45;;;;;;;4.04;100.00;101266.19;5036997;28;20029;-71
2024/02/29 02:16:48;;;;;;;69.05;26.52;;;;;;;4.00;100.00;101252.34;5037079;28;20356;-68
2024/02/29 02:19:15;;;;;;;67.40;26.75;;;;;;;3.74;100.00;101221.06;5039381;28;20049;-68
2024/02/29 02:21:42;;;;;;;60.58;25.33;;;;;;;3.91;100.00;101235.44;5040573;28;20511;-68
2024/02/29 02:24:08;;;;;;;69.60;26.52;;;;;;;3.86;100.00;101218.19;5042976;28;20116;-68
2024/02/29 02:26:33;;;;;;;69.63;27.50;;;;;;;4.01;100.00;101227.41;5043765;28;20033;-68
2024/02/29 02:29:03;;;;;;;72.25;28.08;;;;;;;4.03;100.00;101236.06;5044133;28;20013;-68
2024/02/29 02:31:29;;;;;;;75.38;28.83;;;;;;;4.06;100.00;101219.81;5043942;28;20029;-68
2024/02/29 02:33:55;;;;;;;77.00;29.58;;;;;;;4.06;100.00;101230.47;5045513;28;20033;-69
2024/02/29 02:36:21;;;;;;;79.70;31.50;;;;;;;4.08;100.00;101230.31;5045159;28;20030;-68
2024/02/29 02:38:46;;;;;;;75.70;30.65;;;;;;;4.08;100.00;101219.69;5045672;28;20071;-68
2024/02/29 02:41:11;;;;;;;85.68;32.97;;;;;;;4.12;100.00;101226.38;5044825;28;20029;-70
2024/02/29 02:43:37;;;;;;;82.30;35.00;;;;;;;4.11;100.00;101211.41;5046601;28;20056;-69
2024/02/29 02:46:03;;;;;;;90.13;37.03;;;;;;;4.13;100.00;101226.22;5045617;28;20029;-74
2024/02/29 02:48:28;;;;;;;93.10;35.58;;;;;;;4.16;100.00;101214.44;5048070;28;20451;-70
2024/02/29 02:50:54;;;;;;;90.60;36.40;;;;;;;4.19;100.00;101208.81;5044889;28;20030;-68
2024/02/29 02:53:19;;;;;;;84.22;32.97;;;;;;;4.20;100.00;101202.50;5045401;28;20045;-69
2024/02/29 02:55:44;;;;;;;94.70;37.35;;;;;;;4.18;100.00;101202.66;5044914;28;20056;-68
2024/02/29 02:58:10;;;;;;;92.47;37.83;;;;;;;4.19;100.00;101193.66;5024064;28;20041;-68
2024/02/29 03:00:35;;;;;;;92.70;37.20;;;;;;;4.23;100.00;101179.06;5037097;28;20026;-68
2024/02/29 03:03:01;;;;;;;94.90;37.42;;;;;;;4.22;100.00;101188.06;5036365;28;20025;-68
2024/02/29 03:05:27;;;;;;;93.20;37.67;;;;;;;4.17;100.00;101153.06;5019189;28;20101;-68
2024/02/29 03:07:54;;;;;;;99.82;37.30;;;;;;;4.23;100.00;101160.41;5037581;28;20396;-68
2024/02/29 03:10:20;;;;;;;87.53;36.22;;;;;;;4.22;100.00;101149.94;5036256;28;20029;-68
2024/02/29 03:12:47;;;;;;;92.60;36.20;;;;;;;4.21;100.00;101157.09;5036266;28;20491;-68
2024/02/29 03:15:13;;;;;;;82.95;34.85;;;;;;;4.19;100.00;101156.38;5036758;28;20041;-69
2024/02/29 03:17:38;;;;;;;93.28;34.88;;;;;;;4.22;100.00;101163.25;5021100;28;20049;-69
2024/02/29 03:20:08;;;;;;;93.53;36.03;;;;;;;4.20;100.00;101151.88;5040460;28;20037;-68
2024/02/29 03:22:38;;;;;;;94.00;37.35;;;;;;;4.17;100.00;101142.41;5041746;28;20033;-68
2024/02/29 03:25:03;;;;;;;86.93;36.28;;;;;;;4.11;100.00;101131.50;5027491;28;20040;-69
2024/02/29 03:27:29;;;;;;;91.13;37.10;;;;;;;4.17;100.00;101131.75;5042947;28;20029;-68
2024/02/29 03:29:54;;;;;;;90.55;35.30;;;;;;;4.19;100.00;101119.09;5043234;28;20029;-68
2024/02/29 03:32:20;;;;;;;93.07;38.35;;;;;;;4.20;100.00;101125.25;5044118;28;20059;-68
2024/02/29 03:34:45;;;;;;;92.50;36.53;;;;;;;4.20;100.00;101131.41;5044386;28;20033;-71
2024/02/29 03:37:10;;;;;;;91.38;37.92;;;;;;;4.13;100.00;101106.38;5045417;28;20048;-77
2024/02/29 03:39:37;;;;;;;93.80;38.25;;;;;;;4.20;100.00;101107.44;5026500;28;20113;-68
2024/02/29 03:42:03;;;;;;;78.57;34.38;;;;;;;4.19;100.00;101103.13;5041723;28;20112;-70
2024/02/29 03:44:28;;;;;;;76.68;32.83;;;;;;;4.19;100.00;101113.75;5043996;28;20064;-69
2024/02/29 03:46:54;;;;;;;76.05;32.38;;;;;;;4.10;100.00;101104.00;5044431;28;20484;-69
2024/02/29 03:49:19;;;;;;;72.50;31.15;;;;;;;4.18;100.00;101122.75;5027573;28;20447;-69
2024/02/29 03:51:44;;;;;;;66.25;28.33;;;;;;;4.10;100.00;101096.00;5043453;28;20059;-68
2024/02/29 03:54:10;;;;;;;60.65;28.33;;;;;;;4.17;100.00;101126.41;5038974;28;20037;-68
2024/02/29 03:56:35;;;;;;;65.93;28.23;;;;;;;4.16;100.00;101114.06;5040847;28;20029;-68
2024/02/29 03:59:00;;;;;;;62.25;26.67;;;;;;;4.16;100.00;101103.41;5040209;28;20089;-69
2024/02/29 04:01:26;;;;;;;55.35;26.80;;;;;;;4.13;100.00;101108.19;5052121;28;20037;-73
2024/02/29 04:03:51;;;;;;;45.95;22.35;;;;;;;4.12;100.00;101086.06;5052035;28;20061;-70
2024/02/29 04:06:16;;;;;;;51.78;23.52;;;;;;;4.06;100.00;101077.84;5034929;28;20037;-69
2024/02/29 04:08:42;;;;;;;51.55;24.15;;;;;;;4.10;100.00;101072.06;5048592;28;20079;-68
2024/02/29 04:11:07;;;;;;;46.72;22.88;;;;;;;4.00;100.00;101061.47;5048809;28;20185;-69
2024/02/29 04:13:33;;;;;;;51.28;23.98;;;;;;;3.42;100.00;100963.34;5048532;28;20055;-71
2024/02/29 04:15:58;;;;;;;48.17;22.48;;;;;;;4.09;100.00;101067.72;5028833;28;20033;-69
2024/02/29 04:18:24;;;;;;;47.40;21.52;;;;;;;4.12;100.00;101067.41;5045074;28;20030;-68
2024/02/29 04:20:50;;;;;;;48.88;23.92;;;;;;;4.06;100.00;101062.69;5044991;28;20033;-70
2024/02/29 04:23:15;;;;;;;51.72;21.17;;;;;;;4.08;100.00;101058.06;5026218;28;20036;-68
2024/02/29 04:25:41;;;;;;;48.95;22.42;;;;;;;4.10;100.00;101061.41;5039879;28;20033;-73
2024/02/29 04:28:06;;;;;;;49.80;23.63;;;;;;;4.09;100.00;101064.22;5047437;28;20455;-73
2024/02/29 04:30:32;;;;;;;53.03;23.67;;;;;;;4.11;100.00;101065.75;5022220;28;20118;-68
2024/02/29 04:32:58;;;;;;;47.88;22.65;;;;;;;4.15;100.00;101059.13;5019612;28;20403;-68
2024/02/29 04:35:24;;;;;;;55.70;25.25;;;;;;;4.14;100.00;101049.47;5039223;28;20033;-68
2024/02/29 04:37:49;;;;;;;59.17;25.85;;;;;;;4.16;100.00;101046.66;5042360;28;20034;-68
2024/02/29 04:40:14;;;;;;;55.22;26.40;;;;;;;4.13;100.00;101045.13;5042286;28;20057;-68
2024/02/29 04:42:40;;;;;;;53.60;25.25;;;;;;;4.14;100.00;101041.50;5038993;28;20049;-68
2024/02/29 04:45:07;;;;;;;56.30;25.83;;;;;;;4.15;100.00;101035.16;5038995;28;20064;-68
2024/02/29 04:47:34;;;;;;;57.72;26.25;;;;;;;4.15;100.00;101037.00;5039320;28;20021;-68
2024/02/29 04:50:00;;;;;;;57.13;27.00;;;;;;;4.18;100.00;101026.03;5039800;28;20029;-68
2024/02/29 04:52:25;;;;;;;52.72;24.70;;;;;;;4.02;100.00;101010.72;5040254;28;20052;-68
2024/02/29 04:54:50;;;;;;;50.45;22.60;;;;;;;4.18;100.00;101021.53;5023374;28;20403;-68
2024/02/29 04:57:16;;;;;;;54.95;25.38;;;;;;;4.18;100.00;101024.22;5040738;28;20055;-69
2024/02/29 04:59:41;;;;;;;61.28;27.02;;;;;;;4.16;100.00;101025.34;5007991;28;20029;-68
2024/02/29 05:02:09;;;;;;;56.00;26.90;;;;;;;4.18;100.00;101023.38;5025257;28;20396;-69
2024/02/29 05:04:34;;;;;;;52.20;26.38;;;;;;;3.89;100.00;100979.16;5041540;28;20032;-69
2024/02/29 05:06:59;;;;;;;53.45;27.48;;;;;;;4.19;100.00;101020.53;5039863;28;20037;-68
2024/02/29 05:09:25;;;;;;;63.13;29.50;;;;;;;4.18;100.00;101032.19;5023993;28;20036;-69
2024/02/29 05:11:51;;;;;;;57.28;29.88;;;;;;;4.21;100.00;101026.56;5041547;28;20108;-68
2024/02/29 05:14:16;;;;;;;61.80;29.27;;;;;;;4.19;100.00;101017.88;5039324;28;20033;-68
2024/02/29 05:16:41;;;;;;;65.40;30.30;;;;;;;4.22;100.00;101006.94;5040275;28;20112;-68
2024/02/29 05:19:07;;;;;;;61.63;31.02;;;;;;;4.24;100.00;101004.13;5042476;28;20034;-69
2024/02/29 05:21:32;;;;;;;59.63;29.65;;;;;;;4.23;100.00;100997.09;5033331;28;20048;-73
2024/02/29 05:23:58;;;;;;;50.95;28.30;;;;;;;4.20;100.00;101000.91;5042513;28;20116;-69
2024/02/29 05:26:23;;;;;;;60.03;29.90;;;;;;;4.04;100.00;100984.81;5040454;28;20026;-70
2024/02/29 05:28:48;;;;;;;59.65;30.27;;;;;;;4.16;100.00;101001.38;5023754;28;20392;-70
2024/02/29 05:31:14;;;;;;;57.78;30.60;;;;;;;4.18;100.00;100996.75;5039209;28;20040;-69
2024/02/29 05:33:42;;;;;;;57.25;30.35;;;;;;;4.14;100.00;101004.22;5040199;28;20101;-69
2024/02/29 05:36:08;;;;;;;60.70;28.77;;;;;;;4.08;100.00;100980.84;5039234;28;20026;-69
2024/02/29 05:38:34;;;;;;;61.80;29.02;;;;;;;4.13;100.00;100996.34;5022870;28;20022;-69
2024/02/29 05:41:03;;;;;;;58.53;29.92;;;;;;;4.21;100.00;100999.94;5039485;28;20120;-70
2024/02/29 05:43:29;;;;;;;56.47;29.25;;;;;;;4.22;100.00;100990.13;5040036;28;20037;-69
2024/02/29 05:45:54;;;;;;;62.85;30.25;;;;;;;4.22;100.00;100980.28;5022027;28;20037;-71
2024/02/29 05:48:19;;;;;;;54.85;29.17;;;;;;;4.25;100.00;100984.47;5043777;28;20484;-73
2024/02/29 05:50:45;;;;;;;53.33;27.95;;;;;;;4.18;100.00;100962.13;5040691;28;20030;-76
2024/02/29 05:53:10;;;;;;;53.78;29.52;;;;;;;4.27;100.00;100984.31;5024938;28;20033;-69
2024/02/29 05:55:36;;;;;;;54.70;29.38;;;;;;;4.29;100.00;100985.00;5048517;28;20108;-72
2024/02/29 05:58:01;;;;;;;51.47;28.42;;;;;;;4.29;100.00;100982.34;5044863;28;20029;-72
2024/02/29 06:00:27;;;;;;;57.33;28.92;;;;;;;4.29;100.00;100969.84;5029202;28;20041;-72
2024/02/29 06:02:52;;;;;;;56.50;29.83;;;;;;;4.30;100.00;100968.84;5048013;28;20037;-70
2024/02/29 06:05:19;;;;;;;55.47;28.73;;;;;;;4.25;100.00;100955.19;5046876;28;20041;-71
2024/02/29 06:07:45;;;;;;;55.13;29.52;;;;;;;4.33;100.00;100965.06;5047136;28;20108;-72
2024/02/29 06:10:10;;;;;;;56.38;29.23;;;;;;;4.32;100.00;100966.06;5048874;28;20030;-71
2024/02/29 06:12:37;;;;;;;57.97;30.10;;;;;;;4.31;100.00;100973.22;5046397;28;20017;-70
2024/02/29 06:15:03;;;;;;;63.95;30.95;;;;;;;4.29;100.00;100961.03;5049051;28;20040;-70
2024/02/29 06:17:28;;;;;;;55.70;28.95;;;;;;;4.31;100.00;100953.75;5047171;28;20025;-68
2024/02/29 06:19:54;;;;;;;57.05;29.02;;;;;;;4.30;100.00;100946.72;5045323;28;20033;-68
2024/02/29 06:22:22;;;;;;;58.95;29.52;;;;;;;4.31;100.00;100945.75;5041898;28;20431;-69
2024/02/29 06:24:50;;;;;;;58.60;29.08;;;;;;;4.29;100.00;100931.72;5042495;28;20013;-69
2024/02/29 06:27:21;;;;;;;61.92;30.70;;;;;;;4.29;100.00;100953.03;5040045;28;20053;-69
2024/02/29 06:29:47;;;;;;;57.83;29.58;;;;;;;4.26;100.00;100943.53;5038680;28;20025;-69
2024/02/29 06:32:13;;;;;;;56.17;28.38;;;;;;;4.30;100.00;100933.41;5039010;28;20108;-69
2024/02/29 06:34:39;;;;;;;53.55;29.70;;;;;;;4.28;100.00;100936.22;5039406;28;20034;-69
2024/02/29 06:37:06;;;;;;;52.22;28.00;;;;;;;4.14;100.00;100892.34;5040141;28;20053;-72
2024/02/29 06:39:32;;;;;;;57.03;29.33;;;;;;;4.24;100.00;100919.72;5022077;28;20052;-71
2024/02/29 06:41:58;;;;;;;56.20;28.42;;;;;;;4.28;100.00;100920.25;5039996;28;20060;-69
2024/02/29 06:44:23;;;;;;;55.42;29.15;;;;;;;4.28;100.00;100920.25;5039460;28;20044;-69
2024/02/29 06:46:49;;;;;;;54.67;27.45;;;;;;;4.29;100.00;100905.09;5039168;28;20073;-69
2024/02/29 06:49:15;;;;;;;58.92;28.92;;;;;;;4.31;100.00;100908.44;5039541;28;20080;-69
2024/02/29 06:51:41;;;;;;;57.80;27.02;;;;;;;4.32;100.00;100897.63;5038715;28;20029;-69
2024/02/29 06:54:06;;;;;;;53.00;26.20;;;;;;;4.35;100.00;100899.16;5041151;28;20036;-70
2024/02/29 06:56:32;;;;;;;52.22;27.50;;;;;;;4.32;100.00;100888.81;5039510;28;20431;-69
2024/02/29 06:58:57;;;;;;;53.55;28.02;;;;;;;4.37;100.00;100889.16;5038824;28;20029;-69
2024/02/29 07:01:23;;;;;;;45.80;20.73;;;;;;;4.37;100.00;100903.34;5021339;28;20046;-69
2024/02/29 07:03:48;;;;;;;49.92;26.27;;;;;;;4.38;100.00;100898.84;5036793;28;20041;-69
2024/02/29 07:06:14;;;;;;;49.38;27.45;;;;;;;4.37;100.00;100891.81;5039020;28;20037;-70
2024/02/29 07:08:40;;;;;;;45.00;24.45;;;;;;;4.38;100.00;100886.34;5038668;28;20025;-70
2024/02/29 07:11:05;;;;;;;51.58;27.65;;;;;;;4.41;100.00;100894.03;5039269;28;20117;-69
2024/02/29 07:13:31;;;;;;;53.17;27.15;;;;;;;4.35;100.00;100876.00;5040408;28;20173;-69
2024/02/29 07:15:56;;;;;;;45.42;24.52;;;;;;;4.41;100.00;100886.03;5022729;28;20037;-69
2024/02/29 07:18:23;;;;;;;45.55;22.90;;;;;;;4.43;100.00;100875.22;5040477;28;20107;-70
2024/02/29 07:20:49;;;;;;;48.65;27.17;;;;;;;4.45;100.00;100887.38;5038193;28;20473;-70
2024/02/29 07:23:15;;;;;;;52.58;26.67;;;;;;;4.47;100.00;100880.09;5039774;28;20045;-69
2024/02/29 07:25:40;;;;;;;46.95;26.45;;;;;;;4.48;100.00;100878.25;5039819;28;20025;-69
2024/02/29 07:28:06;;;;;;;50.67;28.50;;;;;;;4.32;100.00;100830.19;5038133;28;20092;-73
2024/02/29 07:30:32;;;;;;;49.75;27.90;;;;;;;4.54;100.00;100871.47;5037757;28;20040;-69
2024/02/29 07:32:58;;;;;;;51.08;28.90;;;;;;;4.48;100.00;100852.44;5022010;28;20033;-69
2024/02/29 07:35:25;;;;;;;47.72;28.50;;;;;;;4.57;100.00;100863.13;5038566;28;20036;-70
2024/02/29 07:37:51;;;;;;;49.88;29.17;;;;;;;4.59;100.00;100859.31;5040170;28;20029;-70
2024/02/29 07:40:16;;;;;;;46.70;27.30;;;;;;;4.62;100.00;100855.50;5037656;28;20053;-70
2024/02/29 07:42:42;;;;;;;54.25;30.67;;;;;;;4.61;100.00;100856.50;5038043;28;20037;-70
2024/02/29 07:45:08;;;;;;;58.80;30.67;;;;;;;4.64;100.00;100845.53;5039684;28;20033;-71
2024/02/29 07:47:34;;;;;;;55.03;30.35;;;;;;;4.61;100.00;100833.34;5037933;28;20398;-70
2024/02/29 07:49:59;;;;;;;61.83;31.42;;;;;;;4.67;100.00;100851.38;5038156;28;20029;-69
2024/02/29 07:52:25;;;;;;;52.17;29.95;;;;;;;4.68;100.00;100844.22;5039723;28;20029;-70
2024/02/29 07:54:51;;;;;;;49.85;28.58;;;;;;;4.67;100.00;100830.06;5038824;28;20026;-70
2024/02/29 07:57:17;;;;;;;46.03;29.13;;;;;;;4.62;100.00;100829.69;5037492;28;20504;-70
2024/02/29 07:59:42;;;;;;;56.20;30.08;;;;;;;4.67;100.00;100821.22;5037834;28;20033;-70
2024/02/29 08:02:08;;;;;;;52.45;29.10;;;;;;;4.52;100.00;100802.31;5038565;28;20560;-70
2024/02/29 08:04:35;;;;;;;49.22;28.83;;;;;;;4.69;100.00;100820.06;5021710;28;20025;-70
2024/02/29 08:07:01;;;;;;;51.58;28.75;;;;;;;4.71;100.00;100811.91;5040549;28;20025;-70
2024/02/29 08:09:26;;;;;;;51.85;27.42;;;;;;;4.72;100.00;100800.25;5026747;28;20037;-69
2024/02/29 08:11:51;;;;;;;46.40;28.23;;;;;;;4.75;100.00;100815.91;5044525;28;20135;-71
2024/02/29 08:14:17;;;;;;;49.30;27.20;;;;;;;4.80;100.00;100810.09;5046529;28;20055;-70
2024/02/29 08:16:42;;;;;;;46.35;26.88;;;;;;;4.78;100.00;100812.94;5045947;28;20056;-69
2024/02/29 08:19:08;;;;;;;53.08;28.58;;;;;;;4.76;100.00;100816.75;5047432;28;20499;-70
2024/02/29 08:21:34;;;;;;;51.50;29.20;;;;;;;4.75;100.00;100813.25;5028510;28;20076;-70
2024/02/29 08:23:59;;;;;;;45.88;25.30;;;;;;;4.67;100.00;100803.41;5044435;28;20035;-70
2024/02/29 08:26:25;;;;;;;49.65;26.23;;;;;;;4.65;100.00;100797.38;5027492;28;20389;-70
2024/02/29 08:28:52;;;;;;;49.15;27.60;;;;;;;4.65;100.00;100809.88;5044164;28;20067;-70
2024/02/29 08:31:19;;;;;;;52.25;28.80;;;;;;;4.59;100.00;100806.00;5043937;28;20079;-69
2024/02/29 08:33:44;;;;;;;52.15;30.13;;;;;;;4.55;100.00;100802.00;5043970;28;20084;-69
2024/02/29 08:36:10;;;;;;;48.42;24.90;;;;;;;4.53;100.00;100800.50;5027970;28;20068;-70
2024/02/29 08:38:37;;;;;;;54.85;30.02;;;;;;;4.48;100.00;100798.31;5044762;28;20041;-69
2024/02/29 08:41:04;;;;;;;54.83;28.10;;;;;;;4.40;100.00;100785.81;5046248;28;20072;-70
2024/02/29 08:43:30;;;;;;;58.50;29.63;;;;;;;4.44;100.00;100786.31;5043042;28;20041;-69
2024/02/29 08:45:55;;;;;;;55.20;28.92;;;;;;;4.42;100.00;100782.97;5009857;28;20114;-70
2024/02/29 08:48:21;;;;;;;50.35;27.52;;;;;;;4.44;100.00;100799.63;5043703;28;20029;-72
2024/02/29 08:50:46;;;;;;;60.40;30.58;;;;;;;4.41;100.00;100789.28;5042442;28;20025;-70
2024/02/29 08:53:12;;;;;;;60.58;30.20;;;;;;;4.41;100.00;100790.13;5044931;28;20034;-70
2024/02/29 08:55:37;;;;;;;51.25;29.58;;;;;;;4.42;100.00;100793.63;5044583;28;20639;-69
2024/02/29 08:58:04;;;;;;;60.53;31.25;;;;;;;4.26;100.00;100753.59;5042963;28;20412;-70
2024/02/29 09:00:30;;;;;;;61.28;30.25;;;;;;;4.38;100.00;100781.63;5043449;28;20044;-69
2024/02/29 09:02:56;;;;;;;54.55;28.52;;;;;;;4.40;100.00;100780.47;5043153;28;20033;-71
2024/02/29 09:05:22;;;;;;;56.22;30.10;;;;;;;4.37;100.00;100780.78;5027569;28;20029;-70
2024/02/29 09:07:47;;;;;;;54.33;27.70;;;;;;;4.38;100.00;100765.63;5045169;28;20037;-70
2024/02/29 09:10:13;;;;;;;51.75;27.58;;;;;;;4.40;100.00;100776.94;5043542;28;20195;-69
2024/02/29 09:12:38;;;;;;;52.92;27.00;;;;;;;4.36;100.00;100767.63;5026758;28;20052;-69
2024/02/29 09:15:04;;;;;;;54.58;27.92;;;;;;;4.38;100.00;100787.78;5043460;28;20044;-69
2024/02/29 09:17:29;;;;;;;54.63;27.48;;;;;;;4.36;100.00;100772.94;5043946;28;20037;-69
2024/02/29 09:19:55;;;;;;;52.03;25.48;;;;;;;4.34;100.00;100797.09;5042621;28;20052;-69
2024/02/29 09:22:21;;;;;;;52.05;28.30;;;;;;;4.35;100.00;100784.59;5042033;28;20029;-71
2024/02/29 09:24:46;;;;;;;51.55;27.67;;;;;;;4.31;100.00;100801.91;5042794;28;20026;-69
2024/02/29 09:27:12;;;;;;;50.47;26.98;;;;;;;4.30;100.00;100802.88;5042085;28;20033;-69
2024/02/29 09:29:39;;;;;;;52.55;26.63;;;;;;;4.24;100.00;100785.72;5041588;28;20026;-69
2024/02/29 09:32:04;;;;;;;51.40;25.40;;;;;;;4.12;100.00;100787.81;5009551;28;20029;-69
2024/02/29 09:34:30;;;;;;;59.17;29.50;;;;;;;4.15;100.00;100771.50;5041573;28;20033;-69
2024/02/29 09:36:57;;;;;;;55.00;28.25;;;;;;;4.26;100.00;100802.34;5043323;28;20099;-69
2024/02/29 09:39:22;;;;;;;60.15;28.60;;;;;;;4.20;100.00;100792.34;5040798;28;20098;-69
2024/02/29 09:41:49;;;;;;;58.42;29.15;;;;;;;4.28;100.00;100799.56;5043125;28;20037;-69
2024/02/29 09:44:16;;;;;;;57.65;29.80;;;;;;;4.30;100.00;100787.72;5042247;28;20136;-69
2024/02/29 09:46:46;;;;;;;56.13;29.05;;;;;;;4.29;100.00;100799.38;5050058;28;20085;-70
2024/02/29 09:49:15;;;;;;;46.15;23.17;;;;;;;4.24;100.00;100781.22;5045436;28;20033;-70
2024/02/29 09:51:41;;;;;;;54.53;28.00;;;;;;;4.24;100.00;100769.75;5040588;28;20021;-70
2024/02/29 09:54:06;;;;;;;51.33;25.50;;;;;;;4.30;100.00;100763.75;5041717;28;20029;-71
2024/02/29 09:56:33;;;;;;;51.20;26.60;;;;;;;4.33;100.00;100779.41;5041278;28;20025;-69
2024/02/29 09:59:02;;;;;;;45.63;26.40;;;;;;;4.34;100.00;100770.47;5041932;28;20030;-69
2024/02/29 10:01:29;;;;;;;54.65;28.65;;;;;;;4.36;100.00;100776.44;5042209;28;20029;-69
2024/02/29 10:03:56;;;;;;;50.78;28.48;;;;;;;4.37;100.00;100785.25;5040836;28;20037;-69
2024/02/29 10:06:22;;;;;;;53.65;29.35;;;;;;;4.21;100.00;100776.22;5040882;28;20025;-69
2024/02/29 10:08:48;;;;;;;52.10;26.95;;;;;;;4.24;100.00;100764.41;5041557;28;20041;-69
2024/02/29 10:11:14;;;;;;;54.90;26.92;;;;;;;4.24;100.00;100757.25;5040438;28;20055;-70
2024/02/29 10:13:41;;;;;;;48.08;25.15;;;;;;;4.33;100.00;100768.75;5023398;28;20068;-69
2024/02/29 10:16:17;;;;;;;49.00;24.48;;;;;;;4.36;100.00;100763.13;5042930;28;20065;-69
2024/02/29 10:18:43;;;;;;;54.72;25.60;;;;;;;4.39;100.00;100761.97;5040936;28;20079;-69
2024/02/29 10:21:10;;;;;;;47.40;24.05;;;;;;;3.86;100.00;100669.84;5041124;28;20033;-70
2024/02/29 10:23:35;;;;;;;53.78;25.90;;;;;;;4.41;100.00;100752.84;5042437;28;20029;-69
2024/02/29 10:26:01;;;;;;;46.58;23.23;;;;;;;4.39;100.00;100762.81;5042312;28;20037;-69
2024/02/29 10:28:28;;;;;;;49.95;24.63;;;;;;;4.40;100.00;100755.63;5042580;28;20029;-69
2024/02/29 10:30:54;;;;;;;42.17;22.95;;;;;;;4.32;100.00;100744.97;5024546;28;20574;-70
2024/02/29 10:33:21;;;;;;;41.70;24.05;;;;;;;4.40;100.00;100766.28;5041519;28;20037;-69
2024/02/29 10:35:47;;;;;;;39.42;22.45;;;;;;;4.39;100.00;100743.31;5041472;28;20108;-69
2024/02/29 10:38:14;;;;;;;45.40;24.30;;;;;;;4.19;100.00;100724.09;5047106;28;20029;-72
2024/02/29 10:40:40;;;;;;;39.65;21.35;;;;;;;4.39;100.00;100756.66;5030861;28;20057;-69
2024/02/29 10:43:11;;;;;;;42.95;22.88;;;;;;;4.40;100.00;100764.50;5041280;28;20044;-70
2024/02/29 10:45:45;;;;;;;40.47;24.17;;;;;;;4.39;100.00;100767.28;5040910;28;20026;-70
2024/02/29 10:48:44;;;;;;;36.47;21.83;;;;;;;4.36;100.00;100746.31;5042061;28;20028;-70
2024/02/29 10:51:16;;;;;;;38.10;21.63;;;;;;;4.37;100.00;100735.50;5027291;28;20057;-70
2024/02/29 10:54:00;;;;;;;39.47;19.92;;;;;;;4.35;100.00;100744.66;5040574;28;20025;-70
2024/02/29 10:56:31;;;;;;;43.15;22.58;;;;;;;4.38;100.00;100754.97;5041435;28;20021;-71
2024/02/29 10:59:02;;;;;;;39.05;20.13;;;;;;;4.40;100.00;100755.63;5041304;28;20055;-70
2024/02/29 11:01:30;;;;;;;39.10;20.02;;;;;;;4.42;100.00;100748.34;5040158;28;20040;-72
2024/02/29 11:03:56;;;;;;;36.50;18.60;;;;;;;4.33;100.00;100730.63;5038780;28;20095;-70